Pagina principale
METAR-TAF:

METAR-TAF

Aeroporti :

Piattaforma petrolifera

P11-b, Paesi Bassi

latitudine: 52-21-36N, longitudine: 3-20-30E, altezza: 24 m

Osservazione

Il bollettino è stato emesso 36 minuti fa, alle 16:55 UTC
Vento 27 kt da nord-est
Temperature 15°C
Umidità 72%
Pressione 1022 hPa
Visibilità 10 km o più

METAR: EHPG 311655Z AUTO 04027KT 9999 NSC 15/10 Q1022

Ora: 19:31 (17:31 UTC)


TAF: mancante

Osservazioni e previsioni meteorologiche di più di 4000 aeroporti (messaggi METAR e TAF).

Le stazioni disponibili sono rappresentate dai dischi gialli e rossi sulla carta.

Puntare il mouse per vedere il nome della stazione.

Clicca sopra per visualizzare le osservazioni e previsioni meteorologiche.

Per cambiare la mappa : fare clic sui pulsanti verdi con una croce nera per ingrandire, il pulsante verde con un trattino per diminuire, o sulla freccia verde per le mappe adiacenti.


METAR-TAF: